Alliance, NE

9:21 AM MST on November 26, 2014 (GMT -0700)
Alliance Municipal | Change Station
CLOSE
Current Station
Airport
Location: Alliance,
Elevation: 3930 ft
Nearby Weather Stations

Elev 3930 ft 42.06 °N, 102.80 °W | Updated 28 minutes ago

Snow
Snow
26 °F
Feels Like 22 °F
N
4
Wind Variable Wind from NE

Today
High -- | Low -- °F
--% Chance of Precip.
Yesterday
High -- | Low -- °F
Precip. -- in
6:54 AM 4:22 PM
Waxing Crescent, 20% visible
Pressure 30.30 in
Visibility 10.0 miles
Clouds Overcast 6000 ft
Windchill 22 °F
Dew Point 21 °F
Humidity 81%
Rainfall 0.00 in
Snow Depth Not available.
UV 0 out of 12
Pollen .10 out of 12
Air Quality Not available.
Flu Activity Not available.
METAR KAIA 261553Z AUTO 04003KT 10SM OVC060 M03/M06 A3022 RMK AO2 SLP260 T10331061

More Conditions Fewer Conditions

Pressure 30.30 in
Visibility 10.0 miles
Clouds Overcast 6000 ft
Windchill 22 °F
Dew Point 21 °F
Humidity 81%
Rainfall 0.00 in
Snow Depth Not available.
UV 0 out of 12
Pollen .10 out of 12
Air Quality Not available.
Flu Activity Not available.
METAR KAIA 261553Z AUTO 04003KT 10SM OVC060 M03/M06 A3022 RMK AO2 SLP260 T10331061

More Conditions Fewer Conditions

10-Day Weather Forecast

Almanac

Astronomy

Nov. 26, 2014 Rise Set
Actual Time
Civil Twilight
Nautical Twilight
Astronomical Twilight
Moon
Length of Visible Light
Length of Day
Tomorrow will be .
, % of the Moon is Illuminated

Today's Extremes

State Highs State Lows

Community

WunderPhotos

Upload Photos

1,773,784 photos uploaded!

WunderBlogs® & News

Nearby

Air Quality

  Air Quality AQ Index Pollutant
Not available.

Snow Depth

Station Depth Elevation

Earthquake Activity

City Distance Mag. Time & Date
Minimum magnitude displayed is 2.5.

Coastal Water Temperatures

Place Temperature

Nearby Weather Stations